sensor_id;sensor_type;location;lat;lon;timestamp;temperature;humidity
27413;DHT22;14871;52.702;5.230;2024-02-15T00:01:55;13.30;99.90
27413;DHT22;14871;52.702;5.230;2024-02-15T00:04:21;13.20;99.90
27413;DHT22;14871;52.702;5.230;2024-02-15T00:06:47;13.30;99.90
27413;DHT22;14871;52.702;5.230;2024-02-15T00:09:12;13.30;99.90
27413;DHT22;14871;52.702;5.230;2024-02-15T00:11:38;13.30;99.90
27413;DHT22;14871;52.702;5.230;2024-02-15T00:14:05;13.30;99.90
27413;DHT22;14871;52.702;5.230;2024-02-15T00:16:30;13.30;99.90
27413;DHT22;14871;52.702;5.230;2024-02-15T00:18:56;13.30;99.90
27413;DHT22;14871;52.702;5.230;2024-02-15T00:21:22;13.30;99.90
27413;DHT22;14871;52.702;5.230;2024-02-15T00:23:51;13.20;99.90
27413;DHT22;14871;52.702;5.230;2024-02-15T00:26:16;13.30;99.90
27413;DHT22;14871;52.702;5.230;2024-02-15T00:28:42;13.30;99.90
27413;DHT22;14871;52.702;5.230;2024-02-15T00:31:08;13.30;99.90
27413;DHT22;14871;52.702;5.230;2024-02-15T00:33:34;13.50;99.90
27413;DHT22;14871;52.702;5.230;2024-02-15T00:36:02;13.40;99.90
27413;DHT22;14871;52.702;5.230;2024-02-15T00:38:31;13.20;99.90
27413;DHT22;14871;52.702;5.230;2024-02-15T00:40:56;13.20;99.90
27413;DHT22;14871;52.702;5.230;2024-02-15T00:43:22;13.30;99.90
27413;DHT22;14871;52.702;5.230;2024-02-15T00:45:48;13.30;99.90
27413;DHT22;14871;52.702;5.230;2024-02-15T00:48:13;13.20;99.90
27413;DHT22;14871;52.702;5.230;2024-02-15T00:51:01;13.20;99.90
27413;DHT22;14871;52.702;5.230;2024-02-15T00:53:26;13.30;99.90
27413;DHT22;14871;52.702;5.230;2024-02-15T00:55:52;13.30;99.90
27413;DHT22;14871;52.702;5.230;2024-02-15T00:58:18;13.40;99.90
27413;DHT22;14871;52.702;5.230;2024-02-15T01:00:43;13.20;99.90
27413;DHT22;14871;52.702;5.230;2024-02-15T01:03:09;13.40;99.90
27413;DHT22;14871;52.702;5.230;2024-02-15T01:05:34;13.50;99.90
27413;DHT22;14871;52.702;5.230;2024-02-15T01:08:00;13.40;99.90
27413;DHT22;14871;52.702;5.230;2024-02-15T01:10:26;13.40;99.90
27413;DHT22;14871;52.702;5.230;2024-02-15T01:12:52;13.20;99.90
27413;DHT22;14871;52.702;5.230;2024-02-15T01:15:18;13.30;99.90
27413;DHT22;14871;52.702;5.230;2024-02-15T01:17:46;13.30;99.90
27413;DHT22;14871;52.702;5.230;2024-02-15T01:20:12;13.40;99.90
27413;DHT22;14871;52.702;5.230;2024-02-15T01:22:38;13.50;99.90
27413;DHT22;14871;52.702;5.230;2024-02-15T01:25:04;13.40;99.90
27413;DHT22;14871;52.702;5.230;2024-02-15T01:27:29;13.40;99.90
27413;DHT22;14871;52.702;5.230;2024-02-15T01:29:56;13.40;99.90
27413;DHT22;14871;52.702;5.230;2024-02-15T01:32:21;13.50;99.90
27413;DHT22;14871;52.702;5.230;2024-02-15T01:34:47;13.30;99.90
27413;DHT22;14871;52.702;5.230;2024-02-15T01:37:13;13.50;99.90
27413;DHT22;14871;52.702;5.230;2024-02-15T01:39:38;13.50;99.90
27413;DHT22;14871;52.702;5.230;2024-02-15T01:42:05;13.40;99.90
27413;DHT22;14871;52.702;5.230;2024-02-15T01:44:31;13.50;99.90
27413;DHT22;14871;52.702;5.230;2024-02-15T01:46:57;13.60;99.90
27413;DHT22;14871;52.702;5.230;2024-02-15T01:49:25;13.30;99.90
27413;DHT22;14871;52.702;5.230;2024-02-15T01:51:53;13.40;99.90
27413;DHT22;14871;52.702;5.230;2024-02-15T01:54:20;13.50;99.90
27413;DHT22;14871;52.702;5.230;2024-02-15T01:56:46;13.30;99.90
27413;DHT22;14871;52.702;5.230;2024-02-15T01:59:15;13.50;99.90
27413;DHT22;14871;52.702;5.230;2024-02-15T02:01:42;13.20;99.90
27413;DHT22;14871;52.702;5.230;2024-02-15T02:04:08;13.40;99.90
27413;DHT22;14871;52.702;5.230;2024-02-15T02:06:34;13.30;99.90
27413;DHT22;14871;52.702;5.230;2024-02-15T02:09:00;13.30;99.90
27413;DHT22;14871;52.702;5.230;2024-02-15T02:11:27;13.30;99.90
27413;DHT22;14871;52.702;5.230;2024-02-15T02:13:55;13.30;99.90
27413;DHT22;14871;52.702;5.230;2024-02-15T02:16:28;13.30;99.90
27413;DHT22;14871;52.702;5.230;2024-02-15T02:18:55;13.40;99.90
27413;DHT22;14871;52.702;5.230;2024-02-15T02:21:23;13.30;99.90
27413;DHT22;14871;52.702;5.230;2024-02-15T02:23:53;13.30;99.90
27413;DHT22;14871;52.702;5.230;2024-02-15T02:26:22;13.20;99.90
27413;DHT22;14871;52.702;5.230;2024-02-15T02:28:48;13.20;99.90
27413;DHT22;14871;52.702;5.230;2024-02-15T02:31:14;13.00;99.90
27413;DHT22;14871;52.702;5.230;2024-02-15T02:33:41;13.00;99.90
27413;DHT22;14871;52.702;5.230;2024-02-15T02:36:07;13.10;99.90
27413;DHT22;14871;52.702;5.230;2024-02-15T02:38:36;13.20;99.90
27413;DHT22;14871;52.702;5.230;2024-02-15T02:41:04;13.10;99.90
27413;DHT22;14871;52.702;5.230;2024-02-15T02:43:30;13.20;99.90
27413;DHT22;14871;52.702;5.230;2024-02-15T02:45:55;13.20;99.90
27413;DHT22;14871;52.702;5.230;2024-02-15T02:48:21;13.20;99.90
27413;DHT22;14871;52.702;5.230;2024-02-15T02:50:48;13.30;99.90
27413;DHT22;14871;52.702;5.230;2024-02-15T02:53:13;13.10;99.90
27413;DHT22;14871;52.702;5.230;2024-02-15T02:55:41;13.20;99.90
27413;DHT22;14871;52.702;5.230;2024-02-15T02:58:07;13.20;99.90
27413;DHT22;14871;52.702;5.230;2024-02-15T03:00:33;13.30;99.90
27413;DHT22;14871;52.702;5.230;2024-02-15T03:02:59;13.30;99.90
27413;DHT22;14871;52.702;5.230;2024-02-15T03:05:25;13.30;99.90
27413;DHT22;14871;52.702;5.230;2024-02-15T03:07:51;13.30;99.90
27413;DHT22;14871;52.702;5.230;2024-02-15T03:10:17;13.40;99.90
27413;DHT22;14871;52.702;5.230;2024-02-15T03:12:44;13.40;99.90
27413;DHT22;14871;52.702;5.230;2024-02-15T03:15:13;13.10;99.90
27413;DHT22;14871;52.702;5.230;2024-02-15T03:17:40;13.20;99.90
27413;DHT22;14871;52.702;5.230;2024-02-15T03:20:09;13.30;99.90
27413;DHT22;14871;52.702;5.230;2024-02-15T03:22:58;13.20;99.90
27413;DHT22;14871;52.702;5.230;2024-02-15T03:25:25;13.10;99.90
27413;DHT22;14871;52.702;5.230;2024-02-15T03:27:52;13.20;99.90
27413;DHT22;14871;52.702;5.230;2024-02-15T03:30:18;13.40;99.90
27413;DHT22;14871;52.702;5.230;2024-02-15T03:32:48;13.40;99.90
27413;DHT22;14871;52.702;5.230;2024-02-15T03:35:17;13.30;99.90
27413;DHT22;14871;52.702;5.230;2024-02-15T03:37:43;13.30;99.90
27413;DHT22;14871;52.702;5.230;2024-02-15T03:40:10;13.20;99.90
27413;DHT22;14871;52.702;5.230;2024-02-15T03:42:35;13.20;99.90
27413;DHT22;14871;52.702;5.230;2024-02-15T03:45:03;13.20;99.90
27413;DHT22;14871;52.702;5.230;2024-02-15T03:47:29;13.20;99.90
27413;DHT22;14871;52.702;5.230;2024-02-15T03:49:54;13.30;99.90
27413;DHT22;14871;52.702;5.230;2024-02-15T03:52:21;13.20;99.90
27413;DHT22;14871;52.702;5.230;2024-02-15T03:54:47;13.10;99.90
27413;DHT22;14871;52.702;5.230;2024-02-15T03:57:13;13.10;99.90
27413;DHT22;14871;52.702;5.230;2024-02-15T03:59:38;13.30;99.90
27413;DHT22;14871;52.702;5.230;2024-02-15T04:02:05;13.30;99.90
27413;DHT22;14871;52.702;5.230;2024-02-15T04:04:33;13.30;99.90
27413;DHT22;14871;52.702;5.230;2024-02-15T04:07:00;13.40;99.90
27413;DHT22;14871;52.702;5.230;2024-02-15T04:09:25;13.20;99.90
27413;DHT22;14871;52.702;5.230;2024-02-15T04:11:51;13.40;99.90
27413;DHT22;14871;52.702;5.230;2024-02-15T04:14:18;13.20;99.90
27413;DHT22;14871;52.702;5.230;2024-02-15T04:16:44;13.20;99.90
27413;DHT22;14871;52.702;5.230;2024-02-15T04:19:11;13.10;99.90
27413;DHT22;14871;52.702;5.230;2024-02-15T04:21:36;13.20;99.90
27413;DHT22;14871;52.702;5.230;2024-02-15T04:24:03;13.30;99.90
27413;DHT22;14871;52.702;5.230;2024-02-15T04:26:30;13.30;99.90
27413;DHT22;14871;52.702;5.230;2024-02-15T04:28:57;13.20;99.90
27413;DHT22;14871;52.702;5.230;2024-02-15T04:31:24;13.10;99.90
27413;DHT22;14871;52.702;5.230;2024-02-15T04:33:53;13.10;99.90
27413;DHT22;14871;52.702;5.230;2024-02-15T04:36:18;13.30;99.90
27413;DHT22;14871;52.702;5.230;2024-02-15T04:38:49;13.20;99.90
27413;DHT22;14871;52.702;5.230;2024-02-15T04:41:16;13.20;99.90
27413;DHT22;14871;52.702;5.230;2024-02-15T04:43:46;13.30;99.90
27413;DHT22;14871;52.702;5.230;2024-02-15T04:46:12;13.30;99.90
27413;DHT22;14871;52.702;5.230;2024-02-15T04:48:40;13.40;99.90
27413;DHT22;14871;52.702;5.230;2024-02-15T04:51:07;13.40;99.90
27413;DHT22;14871;52.702;5.230;2024-02-15T04:53:33;13.60;99.90
27413;DHT22;14871;52.702;5.230;2024-02-15T04:55:58;13.50;99.90
27413;DHT22;14871;52.702;5.230;2024-02-15T04:58:28;13.40;99.90
27413;DHT22;14871;52.702;5.230;2024-02-15T05:00:54;13.50;99.90
27413;DHT22;14871;52.702;5.230;2024-02-15T05:03:24;13.30;99.90
27413;DHT22;14871;52.702;5.230;2024-02-15T05:05:50;13.40;99.90
27413;DHT22;14871;52.702;5.230;2024-02-15T05:08:16;13.50;99.90
27413;DHT22;14871;52.702;5.230;2024-02-15T05:10:41;13.30;99.90
27413;DHT22;14871;52.702;5.230;2024-02-15T05:13:07;13.20;99.90
27413;DHT22;14871;52.702;5.230;2024-02-15T05:15:33;13.30;99.90
27413;DHT22;14871;52.702;5.230;2024-02-15T05:17:59;13.50;99.90
27413;DHT22;14871;52.702;5.230;2024-02-15T05:20:27;13.50;99.90
27413;DHT22;14871;52.702;5.230;2024-02-15T05:22:52;13.50;99.90
27413;DHT22;14871;52.702;5.230;2024-02-15T05:25:19;13.40;99.90
27413;DHT22;14871;52.702;5.230;2024-02-15T05:27:48;13.40;99.90
27413;DHT22;14871;52.702;5.230;2024-02-15T05:30:14;13.30;99.90
27413;DHT22;14871;52.702;5.230;2024-02-15T05:32:40;13.40;99.90
27413;DHT22;14871;52.702;5.230;2024-02-15T05:35:11;13.30;99.90
27413;DHT22;14871;52.702;5.230;2024-02-15T05:37:37;13.00;99.90
27413;DHT22;14871;52.702;5.230;2024-02-15T05:40:03;13.30;99.90
27413;DHT22;14871;52.702;5.230;2024-02-15T05:42:30;13.30;99.90
27413;DHT22;14871;52.702;5.230;2024-02-15T05:44:56;13.30;99.90
27413;DHT22;14871;52.702;5.230;2024-02-15T05:47:24;13.30;99.90
27413;DHT22;14871;52.702;5.230;2024-02-15T05:49:50;13.30;99.90
27413;DHT22;14871;52.702;5.230;2024-02-15T05:52:15;13.20;99.90
27413;DHT22;14871;52.702;5.230;2024-02-15T05:54:43;13.30;99.90
27413;DHT22;14871;52.702;5.230;2024-02-15T05:57:09;13.30;99.90
27413;DHT22;14871;52.702;5.230;2024-02-15T05:59:34;13.30;99.90
27413;DHT22;14871;52.702;5.230;2024-02-15T06:02:01;13.30;99.90
27413;DHT22;14871;52.702;5.230;2024-02-15T06:04:28;13.40;99.90
27413;DHT22;14871;52.702;5.230;2024-02-15T06:06:55;13.20;99.90
27413;DHT22;14871;52.702;5.230;2024-02-15T06:09:24;13.30;99.90
27413;DHT22;14871;52.702;5.230;2024-02-15T06:11:52;13.50;99.90
27413;DHT22;14871;52.702;5.230;2024-02-15T06:14:20;13.40;99.90
27413;DHT22;14871;52.702;5.230;2024-02-15T06:16:46;13.50;99.90
27413;DHT22;14871;52.702;5.230;2024-02-15T06:19:13;13.30;99.90
27413;DHT22;14871;52.702;5.230;2024-02-15T06:21:39;13.30;99.90
27413;DHT22;14871;52.702;5.230;2024-02-15T06:24:05;13.10;99.90
27413;DHT22;14871;52.702;5.230;2024-02-15T06:26:31;13.20;99.90
27413;DHT22;14871;52.702;5.230;2024-02-15T06:28:57;13.20;99.90
27413;DHT22;14871;52.702;5.230;2024-02-15T06:31:41;13.20;99.90
27413;DHT22;14871;52.702;5.230;2024-02-15T06:34:25;13.20;99.90
27413;DHT22;14871;52.702;5.230;2024-02-15T06:37:09;13.10;99.90
27413;DHT22;14871;52.702;5.230;2024-02-15T06:39:53;13.00;99.90
27413;DHT22;14871;52.702;5.230;2024-02-15T06:42:19;13.00;99.90
27413;DHT22;14871;52.702;5.230;2024-02-15T06:44:46;13.10;99.90
27413;DHT22;14871;52.702;5.230;2024-02-15T06:47:12;13.10;99.90
27413;DHT22;14871;52.702;5.230;2024-02-15T06:49:39;13.10;99.90
27413;DHT22;14871;52.702;5.230;2024-02-15T06:52:06;13.10;99.90
27413;DHT22;14871;52.702;5.230;2024-02-15T06:54:33;13.20;99.90
27413;DHT22;14871;52.702;5.230;2024-02-15T06:56:59;13.20;99.90
27413;DHT22;14871;52.702;5.230;2024-02-15T06:59:25;13.20;99.90
27413;DHT22;14871;52.702;5.230;2024-02-15T07:01:51;13.20;99.90
27413;DHT22;14871;52.702;5.230;2024-02-15T07:04:20;13.20;99.90
27413;DHT22;14871;52.702;5.230;2024-02-15T07:06:46;13.30;99.90
27413;DHT22;14871;52.702;5.230;2024-02-15T07:09:14;13.10;99.90
27413;DHT22;14871;52.702;5.230;2024-02-15T07:11:44;13.20;99.90
27413;DHT22;14871;52.702;5.230;2024-02-15T07:14:14;13.20;99.90
27413;DHT22;14871;52.702;5.230;2024-02-15T07:16:44;13.30;99.90
27413;DHT22;14871;52.702;5.230;2024-02-15T07:19:11;13.30;99.90
27413;DHT22;14871;52.702;5.230;2024-02-15T07:21:36;13.30;99.90
27413;DHT22;14871;52.702;5.230;2024-02-15T07:24:02;13.30;99.90
27413;DHT22;14871;52.702;5.230;2024-02-15T07:26:30;13.50;99.90
27413;DHT22;14871;52.702;5.230;2024-02-15T07:28:56;13.40;99.90
27413;DHT22;14871;52.702;5.230;2024-02-15T07:31:23;13.10;99.90
27413;DHT22;14871;52.702;5.230;2024-02-15T07:33:52;13.00;99.90
27413;DHT22;14871;52.702;5.230;2024-02-15T07:36:22;13.00;99.90
27413;DHT22;14871;52.702;5.230;2024-02-15T07:38:52;13.30;99.90
27413;DHT22;14871;52.702;5.230;2024-02-15T07:41:26;13.10;99.90
27413;DHT22;14871;52.702;5.230;2024-02-15T07:43:53;13.20;99.90
27413;DHT22;14871;52.702;5.230;2024-02-15T07:46:21;13.30;99.90
27413;DHT22;14871;52.702;5.230;2024-02-15T07:48:47;13.40;99.90
27413;DHT22;14871;52.702;5.230;2024-02-15T07:51:14;13.40;99.90
27413;DHT22;14871;52.702;5.230;2024-02-15T07:53:41;13.30;99.90
27413;DHT22;14871;52.702;5.230;2024-02-15T07:56:11;13.60;99.90
27413;DHT22;14871;52.702;5.230;2024-02-15T07:58:41;13.40;99.90
27413;DHT22;14871;52.702;5.230;2024-02-15T08:01:07;13.50;99.90
27413;DHT22;14871;52.702;5.230;2024-02-15T08:03:35;13.40;99.90
27413;DHT22;14871;52.702;5.230;2024-02-15T08:06:01;13.70;99.90
27413;DHT22;14871;52.702;5.230;2024-02-15T08:08:32;13.70;99.90
27413;DHT22;14871;52.702;5.230;2024-02-15T08:11:00;13.60;99.90
27413;DHT22;14871;52.702;5.230;2024-02-15T08:13:27;13.70;99.90
27413;DHT22;14871;52.702;5.230;2024-02-15T08:15:55;13.60;99.90
27413;DHT22;14871;52.702;5.230;2024-02-15T08:18:20;13.60;99.90
27413;DHT22;14871;52.702;5.230;2024-02-15T08:20:46;13.60;99.90
27413;DHT22;14871;52.702;5.230;2024-02-15T08:23:12;13.40;99.90
27413;DHT22;14871;52.702;5.230;2024-02-15T08:25:40;13.50;99.90
27413;DHT22;14871;52.702;5.230;2024-02-15T08:28:08;13.50;99.90
27413;DHT22;14871;52.702;5.230;2024-02-15T08:30:34;13.40;99.90
27413;DHT22;14871;52.702;5.230;2024-02-15T08:33:00;13.30;99.90
27413;DHT22;14871;52.702;5.230;2024-02-15T08:35:25;13.40;99.90
27413;DHT22;14871;52.702;5.230;2024-02-15T08:37:51;13.40;99.90
27413;DHT22;14871;52.702;5.230;2024-02-15T08:40:18;13.30;99.90
27413;DHT22;14871;52.702;5.230;2024-02-15T08:42:50;13.20;99.90
27413;DHT22;14871;52.702;5.230;2024-02-15T08:45:15;13.30;99.90
27413;DHT22;14871;52.702;5.230;2024-02-15T08:47:42;13.50;99.90
27413;DHT22;14871;52.702;5.230;2024-02-15T08:50:09;13.60;99.90
27413;DHT22;14871;52.702;5.230;2024-02-15T08:52:36;13.60;99.90
27413;DHT22;14871;52.702;5.230;2024-02-15T08:55:10;13.30;99.90
27413;DHT22;14871;52.702;5.230;2024-02-15T08:57:37;13.50;99.90
27413;DHT22;14871;52.702;5.230;2024-02-15T09:00:06;13.60;99.90
27413;DHT22;14871;52.702;5.230;2024-02-15T09:02:41;13.80;99.90
27413;DHT22;14871;52.702;5.230;2024-02-15T09:05:07;13.70;99.90
27413;DHT22;14871;52.702;5.230;2024-02-15T09:07:33;13.80;99.90
27413;DHT22;14871;52.702;5.230;2024-02-15T09:09:59;13.80;99.90
27413;DHT22;14871;52.702;5.230;2024-02-15T09:12:24;13.50;99.90
27413;DHT22;14871;52.702;5.230;2024-02-15T09:14:50;13.50;99.90
27413;DHT22;14871;52.702;5.230;2024-02-15T09:17:16;13.50;99.90
27413;DHT22;14871;52.702;5.230;2024-02-15T09:19:41;13.40;99.90
27413;DHT22;14871;52.702;5.230;2024-02-15T09:22:07;13.60;99.90
27413;DHT22;14871;52.702;5.230;2024-02-15T09:24:33;13.70;99.90
27413;DHT22;14871;52.702;5.230;2024-02-15T09:27:02;13.50;99.90
27413;DHT22;14871;52.702;5.230;2024-02-15T09:29:31;13.40;99.90
27413;DHT22;14871;52.702;5.230;2024-02-15T09:31:58;13.40;99.90
27413;DHT22;14871;52.702;5.230;2024-02-15T09:34:24;13.40;99.90
27413;DHT22;14871;52.702;5.230;2024-02-15T09:36:50;13.60;99.90
27413;DHT22;14871;52.702;5.230;2024-02-15T09:39:16;13.30;99.90
27413;DHT22;14871;52.702;5.230;2024-02-15T09:41:43;13.40;99.90
27413;DHT22;14871;52.702;5.230;2024-02-15T09:44:09;13.30;99.90
27413;DHT22;14871;52.702;5.230;2024-02-15T09:46:36;13.60;99.90
27413;DHT22;14871;52.702;5.230;2024-02-15T09:49:01;13.70;99.90
27413;DHT22;14871;52.702;5.230;2024-02-15T09:51:29;13.40;99.90
27413;DHT22;14871;52.702;5.230;2024-02-15T09:53:57;13.60;99.90
27413;DHT22;14871;52.702;5.230;2024-02-15T09:56:24;13.60;99.90
27413;DHT22;14871;52.702;5.230;2024-02-15T09:58:51;13.80;99.90
27413;DHT22;14871;52.702;5.230;2024-02-15T10:01:20;13.70;99.90
27413;DHT22;14871;52.702;5.230;2024-02-15T10:03:49;13.70;99.90
27413;DHT22;14871;52.702;5.230;2024-02-15T10:06:17;13.60;99.90
27413;DHT22;14871;52.702;5.230;2024-02-15T10:08:44;13.80;99.90
27413;DHT22;14871;52.702;5.230;2024-02-15T10:11:10;13.80;99.90
27413;DHT22;14871;52.702;5.230;2024-02-15T10:13:36;13.70;99.90
27413;DHT22;14871;52.702;5.230;2024-02-15T10:16:31;13.60;99.90
27413;DHT22;14871;52.702;5.230;2024-02-15T10:19:09;13.70;99.90
27413;DHT22;14871;52.702;5.230;2024-02-15T10:21:35;13.80;99.90
27413;DHT22;14871;52.702;5.230;2024-02-15T10:24:08;13.80;99.90
27413;DHT22;14871;52.702;5.230;2024-02-15T10:26:34;13.80;99.90
27413;DHT22;14871;52.702;5.230;2024-02-15T10:29:13;13.80;99.90
27413;DHT22;14871;52.702;5.230;2024-02-15T10:31:51;13.70;99.90
27413;DHT22;14871;52.702;5.230;2024-02-15T10:34:17;13.90;99.90
27413;DHT22;14871;52.702;5.230;2024-02-15T10:36:44;13.80;99.90
27413;DHT22;14871;52.702;5.230;2024-02-15T10:39:18;13.90;99.90
27413;DHT22;14871;52.702;5.230;2024-02-15T10:41:50;14.00;99.90
27413;DHT22;14871;52.702;5.230;2024-02-15T10:44:21;14.00;99.90
27413;DHT22;14871;52.702;5.230;2024-02-15T10:46:49;13.90;99.90
27413;DHT22;14871;52.702;5.230;2024-02-15T10:49:20;13.80;99.90
27413;DHT22;14871;52.702;5.230;2024-02-15T10:51:57;13.80;99.90
27413;DHT22;14871;52.702;5.230;2024-02-15T10:55:03;13.80;99.90
27413;DHT22;14871;52.702;5.230;2024-02-15T10:57:26;13.80;99.90
27413;DHT22;14871;52.702;5.230;2024-02-15T10:59:56;13.80;99.90
27413;DHT22;14871;52.702;5.230;2024-02-15T11:05:30;13.80;99.90
27413;DHT22;14871;52.702;5.230;2024-02-15T11:07:57;14.00;99.90
27413;DHT22;14871;52.702;5.230;2024-02-15T11:10:24;13.90;99.90
27413;DHT22;14871;52.702;5.230;2024-02-15T11:12:50;14.00;99.90
27413;DHT22;14871;52.702;5.230;2024-02-15T11:18:01;13.90;99.90
27413;DHT22;14871;52.702;5.230;2024-02-15T11:23:03;13.80;99.90
27413;DHT22;14871;52.702;5.230;2024-02-15T11:25:37;14.00;99.90
27413;DHT22;14871;52.702;5.230;2024-02-15T11:30:51;14.00;99.90
27413;DHT22;14871;52.702;5.230;2024-02-15T11:33:29;13.80;99.90
27413;DHT22;14871;52.702;5.230;2024-02-15T11:36:08;13.80;99.90
27413;DHT22;14871;52.702;5.230;2024-02-15T11:38:35;14.00;99.90
27413;DHT22;14871;52.702;5.230;2024-02-15T11:46:15;13.90;99.90
27413;DHT22;14871;52.702;5.230;2024-02-15T11:48:54;13.80;99.90
27413;DHT22;14871;52.702;5.230;2024-02-15T11:51:39;14.00;99.90
27413;DHT22;14871;52.702;5.230;2024-02-15T11:54:12;14.00;99.90
27413;DHT22;14871;52.702;5.230;2024-02-15T11:59:09;14.00;99.90
27413;DHT22;14871;52.702;5.230;2024-02-15T12:01:44;14.00;99.90
27413;DHT22;14871;52.702;5.230;2024-02-15T12:04:31;13.90;99.90
27413;DHT22;14871;52.702;5.230;2024-02-15T12:07:16;14.10;99.90
27413;DHT22;14871;52.702;5.230;2024-02-15T12:10:00;14.20;99.90
27413;DHT22;14871;52.702;5.230;2024-02-15T12:12:54;14.10;99.90
27413;DHT22;14871;52.702;5.230;2024-02-15T12:15:38;14.20;99.90
27413;DHT22;14871;52.702;5.230;2024-02-15T12:18:22;14.20;99.90
27413;DHT22;14871;52.702;5.230;2024-02-15T12:21:07;14.10;99.90
27413;DHT22;14871;52.702;5.230;2024-02-15T12:23:37;14.10;99.90
27413;DHT22;14871;52.702;5.230;2024-02-15T12:26:03;14.20;99.90
27413;DHT22;14871;52.702;5.230;2024-02-15T12:28:29;14.20;99.90
27413;DHT22;14871;52.702;5.230;2024-02-15T12:30:56;14.30;99.90
27413;DHT22;14871;52.702;5.230;2024-02-15T12:33:22;14.30;99.90
27413;DHT22;14871;52.702;5.230;2024-02-15T12:35:49;14.20;99.90
27413;DHT22;14871;52.702;5.230;2024-02-15T12:38:15;14.20;99.90
27413;DHT22;14871;52.702;5.230;2024-02-15T12:40:42;14.40;99.90
27413;DHT22;14871;52.702;5.230;2024-02-15T12:43:09;14.20;99.90
27413;DHT22;14871;52.702;5.230;2024-02-15T12:45:41;14.30;99.90
27413;DHT22;14871;52.702;5.230;2024-02-15T12:48:07;14.30;99.90
27413;DHT22;14871;52.702;5.230;2024-02-15T12:50:34;14.30;99.90
27413;DHT22;14871;52.702;5.230;2024-02-15T12:53:01;14.30;99.90
27413;DHT22;14871;52.702;5.230;2024-02-15T12:55:32;14.40;99.90
27413;DHT22;14871;52.702;5.230;2024-02-15T12:58:01;14.30;99.90
27413;DHT22;14871;52.702;5.230;2024-02-15T13:00:30;14.30;99.90
27413;DHT22;14871;52.702;5.230;2024-02-15T13:03:03;14.30;99.90
27413;DHT22;14871;52.702;5.230;2024-02-15T13:05:30;14.50;99.90
27413;DHT22;14871;52.702;5.230;2024-02-15T13:07:57;14.40;99.90
27413;DHT22;14871;52.702;5.230;2024-02-15T13:10:28;14.50;99.90
27413;DHT22;14871;52.702;5.230;2024-02-15T13:12:55;14.80;99.90
27413;DHT22;14871;52.702;5.230;2024-02-15T13:15:22;14.60;99.90
27413;DHT22;14871;52.702;5.230;2024-02-15T13:17:59;14.70;99.90
27413;DHT22;14871;52.702;5.230;2024-02-15T13:20:26;14.70;99.90
27413;DHT22;14871;52.702;5.230;2024-02-15T13:22:59;14.80;99.90
27413;DHT22;14871;52.702;5.230;2024-02-15T13:25:31;14.80;99.90
27413;DHT22;14871;52.702;5.230;2024-02-15T13:27:57;14.90;99.90
27413;DHT22;14871;52.702;5.230;2024-02-15T13:30:23;14.70;99.90
27413;DHT22;14871;52.702;5.230;2024-02-15T13:32:52;14.90;99.90
27413;DHT22;14871;52.702;5.230;2024-02-15T13:35:19;15.10;99.90
27413;DHT22;14871;52.702;5.230;2024-02-15T13:37:49;15.20;99.90
27413;DHT22;14871;52.702;5.230;2024-02-15T13:40:18;15.30;99.90
27413;DHT22;14871;52.702;5.230;2024-02-15T13:42:46;15.50;99.90
27413;DHT22;14871;52.702;5.230;2024-02-15T13:47:49;15.70;99.90
27413;DHT22;14871;52.702;5.230;2024-02-15T13:50:19;15.80;99.90
27413;DHT22;14871;52.702;5.230;2024-02-15T13:52:45;15.80;99.90
27413;DHT22;14871;52.702;5.230;2024-02-15T13:55:17;15.60;99.90
27413;DHT22;14871;52.702;5.230;2024-02-15T13:57:45;15.70;99.90
27413;DHT22;14871;52.702;5.230;2024-02-15T14:00:14;15.70;99.90
27413;DHT22;14871;52.702;5.230;2024-02-15T14:02:43;15.80;99.90
27413;DHT22;14871;52.702;5.230;2024-02-15T14:05:09;15.60;99.90
27413;DHT22;14871;52.702;5.230;2024-02-15T14:07:37;15.60;99.90
27413;DHT22;14871;52.702;5.230;2024-02-15T14:10:05;15.60;99.90
27413;DHT22;14871;52.702;5.230;2024-02-15T14:12:30;15.50;99.90
27413;DHT22;14871;52.702;5.230;2024-02-15T14:14:56;15.60;99.90
27413;DHT22;14871;52.702;5.230;2024-02-15T14:17:22;15.70;99.90
27413;DHT22;14871;52.702;5.230;2024-02-15T14:19:51;15.40;99.90
27413;DHT22;14871;52.702;5.230;2024-02-15T14:22:17;15.60;99.90
27413;DHT22;14871;52.702;5.230;2024-02-15T14:24:42;15.80;99.90
27413;DHT22;14871;52.702;5.230;2024-02-15T14:27:11;15.90;99.90
27413;DHT22;14871;52.702;5.230;2024-02-15T14:29:37;16.00;99.90
27413;DHT22;14871;52.702;5.230;2024-02-15T14:32:11;16.00;99.90
27413;DHT22;14871;52.702;5.230;2024-02-15T14:34:55;16.40;99.90
27413;DHT22;14871;52.702;5.230;2024-02-15T14:37:22;16.30;99.90
27413;DHT22;14871;52.702;5.230;2024-02-15T14:39:47;16.20;99.90
27413;DHT22;14871;52.702;5.230;2024-02-15T14:42:13;16.40;99.90
27413;DHT22;14871;52.702;5.230;2024-02-15T14:44:39;16.30;99.90
27413;DHT22;14871;52.702;5.230;2024-02-15T14:47:05;16.10;99.90
27413;DHT22;14871;52.702;5.230;2024-02-15T14:49:31;16.00;99.90
27413;DHT22;14871;52.702;5.230;2024-02-15T14:51:56;16.00;99.90
27413;DHT22;14871;52.702;5.230;2024-02-15T14:54:22;15.90;99.90
27413;DHT22;14871;52.702;5.230;2024-02-15T14:56:48;16.00;99.90
27413;DHT22;14871;52.702;5.230;2024-02-15T14:59:13;15.70;99.90
27413;DHT22;14871;52.702;5.230;2024-02-15T15:01:40;15.50;99.90
27413;DHT22;14871;52.702;5.230;2024-02-15T15:04:06;15.70;99.90
27413;DHT22;14871;52.702;5.230;2024-02-15T15:06:33;15.80;99.90
27413;DHT22;14871;52.702;5.230;2024-02-15T15:09:17;15.70;99.90
27413;DHT22;14871;52.702;5.230;2024-02-15T15:12:01;15.50;99.90
27413;DHT22;14871;52.702;5.230;2024-02-15T15:14:45;15.50;99.90
27413;DHT22;14871;52.702;5.230;2024-02-15T15:17:11;15.50;99.90
27413;DHT22;14871;52.702;5.230;2024-02-15T15:19:38;15.40;99.90
27413;DHT22;14871;52.702;5.230;2024-02-15T15:22:04;15.50;99.90
27413;DHT22;14871;52.702;5.230;2024-02-15T15:24:33;15.40;99.90
27413;DHT22;14871;52.702;5.230;2024-02-15T15:26:59;15.30;99.90
27413;DHT22;14871;52.702;5.230;2024-02-15T15:29:25;15.20;99.90
27413;DHT22;14871;52.702;5.230;2024-02-15T15:31:51;15.10;99.90
27413;DHT22;14871;52.702;5.230;2024-02-15T15:34:17;15.10;99.90
27413;DHT22;14871;52.702;5.230;2024-02-15T15:36:45;15.10;99.90
27413;DHT22;14871;52.702;5.230;2024-02-15T15:39:15;15.20;99.90
27413;DHT22;14871;52.702;5.230;2024-02-15T15:41:44;15.10;99.90
27413;DHT22;14871;52.702;5.230;2024-02-15T15:44:09;15.20;99.90
27413;DHT22;14871;52.702;5.230;2024-02-15T15:46:35;15.00;99.90
27413;DHT22;14871;52.702;5.230;2024-02-15T15:49:02;14.90;99.90
27413;DHT22;14871;52.702;5.230;2024-02-15T15:51:29;14.90;99.90
27413;DHT22;14871;52.702;5.230;2024-02-15T15:53:55;14.60;99.90
27413;DHT22;14871;52.702;5.230;2024-02-15T15:56:21;14.80;99.90
27413;DHT22;14871;52.702;5.230;2024-02-15T15:58:47;14.90;99.90